Data for 01/24/2018

Time Sea-Level Adjusted Pressure Absolute Pressure Temperature Relative Humidity Dew Point   
(mb) (inHg) (mb) (inHg) (C) (F) (%) (C) (F)
00:05 1018 30.06 847 25.01 -4.7 23.6 62 -10.9 12.3
00:10 1018 30.06 847 25.01 -4.9 23.2 63 -10.9 12.4
00:15 1018 30.06 847 25.01 -4.7 23.6 62 -10.9 12.4
00:20 1018 30.06 847 25.01 -4.5 23.8 61 -10.9 12.4
00:25 1018 30.06 847 25.01 -4.1 24.6 60 -10.8 12.5
00:30 1018 30.06 847 25.01 -4.1 24.6 61 -10.6 12.9
00:35 1018 30.06 847 25.01 -4.2 24.4 60 -10.9 12.4
00:40 1018 30.06 847 25.01 -4.2 24.4 61 -10.8 12.6
00:45 1018 30.06 847 25.01 -3.9 25 59 -10.7 12.8
00:50 1018 30.06 847 25.01 -3.8 25.2 60 -10.4 13.3
00:55 1018 30.06 847 25.01 -3.8 25.1 60 -10.4 13.3
01:00 1018 30.06 847 25.01 -4.1 24.5 61 -10.5 13.1
01:05 1018 30.06 847 25.01 -4.2 24.5 61 -10.6 13
01:10 1018 30.06 847 25.01 -4.2 24.4 62 -10.4 13.2
01:15 1018 30.06 847 25.01 -4.2 24.4 61 -10.6 12.9
01:20 1018 30.06 847 25.01 -4.4 24.1 61 -10.9 12.5
01:25 1018 30.06 847 25.01 -4.3 24.3 61 -10.7 12.8
01:30 1018 30.06 847 25.01 -4.2 24.4 62 -10.4 13.3
01:35 1018 30.06 847 25.01 -4.3 24.3 63 -10.3 13.5
01:40 1018 30.06 847 25.01 -3.9 24.9 63 -10.1 13.9
01:45 1017 30.03 847 25.01 -3.9 25 62 -10.1 13.9
01:50 1017 30.03 847 25.01 -3.7 25.4 62 -9.9 14.2
01:55 1017 30.03 847 25.01 -3.4 25.9 62 -9.8 14.4
02:00 1018 30.06 847 25.01 -3.3 26.1 61 -9.8 14.4
02:05 1017 30.03 847 25.01 -3.1 26.3 60 -9.8 14.4
02:10 1017 30.03 847 25.01 -2.9 26.7 61 -9.5 14.9
02:15 1017 30.03 847 25.01 -3.1 26.5 61 -9.5 14.9
02:20 1017 30.03 847 25.01 -3.5 25.8 64 -9.3 15.3
02:25 1017 30.03 847 25.01 -3.4 26 63 -9.4 15.1
02:30 1017 30.03 847 25.01 -3.2 26.3 62 -9.4 15.2
02:35 1017 30.03 847 25.01 -2.8 26.9 62 -9.2 15.5
02:40 1017 30.03 847 25.01 -2.4 27.7 60 -9.1 15.6
02:45 1017 30.03 847 25.01 -2.3 27.8 57 -9.6 14.7
02:50 1017 30.03 847 25.01 -2.1 28.2 57 -9.6 14.7
02:55 1017 30.03 847 25.01 -2.1 28.1 56 -9.8 14.4
03:00 1017 30.03 847 25.01 -1.9 28.6 54 -9.9 14.2
03:05 1017 30.03 847 25.01 -1.5 29.3 54 -9.6 14.7
03:10 1017 30.03 847 25.01 -1.5 29.4 56 -9.2 15.4
03:15 1017 30.03 846 24.98 -1.9 28.7 56 -9.5 14.8
03:20 1017 30.03 846 24.98 -1.7 28.9 57 -9.2 15.4
03:25 1017 30.03 846 24.98 -2.1 28.2 59 -9.2 15.5
03:30 1017 30.03 846 24.98 -2.1 28.2 60 -8.8 16.2
03:35 1017 30.03 846 24.98 -2.1 28.1 62 -8.4 16.9
03:40 1017 30.03 846 24.98 -2 28.5 62 -8.3 17.1
03:45 1017 30.03 846 24.98 -1.9 28.6 62 -8.3 17.1
03:50 1017 30.03 846 24.98 -2 28.5 63 -8.1 17.4
03:55 1017 30.03 846 24.98 -2.1 28.3 63 -8.3 17.1
04:00 1017 30.03 846 24.98 -1.8 28.8 62 -8.2 17.2
04:05 1017 30.03 846 24.98 -1.7 28.9 62 -8.1 17.3
04:10 1017 30.03 846 24.98 -1.6 29.1 61 -8.2 17.3
04:15 1017 30.03 846 24.98 -1.6 29.2 61 -8.1 17.4
04:20 1017 30.03 846 24.98 -1.9 28.5 63 -8.1 17.4
04:25 1017 30.03 846 24.98 -1.8 28.8 61 -8.3 17.1
04:30 1017 30.03 846 24.98 -1.8 28.8 62 -8.2 17.3
04:35 1017 30.03 846 24.98 -1.4 29.4 58 -8.6 16.5
04:40 1017 30.03 846 24.98 -1.2 29.9 59 -8.2 17.2
04:45 1017 30.03 846 24.98 -1.2 29.8 58 -8.5 16.7
04:50 1017 30.03 846 24.98 -1.3 29.7 60 -8 17.6
04:55 1017 30.03 846 24.98 -1.5 29.4 59 -8.4 16.9
05:00 1017 30.03 846 24.98 -1.6 29.1 62 -7.9 17.7
05:05 1017 30.03 846 24.98 -1.9 28.6 63 -8 17.6
05:10 1017 30.03 846 24.98 -2.2 28 64 -8.2 17.2
05:15 1017 30.03 846 24.98 -2.3 27.9 63 -8.5 16.7
05:20 1017 30.03 846 24.98 -1.8 28.8 60 -8.5 16.7
05:25 1017 30.03 846 24.98 -1.4 29.5 59 -8.3 17.1
05:30 1017 30.03 846 24.98 -1.1 30.1 57 -8.5 16.7
05:35 1017 30.03 846 24.98 -1 30.3 57 -8.5 16.6
05:40 1017 30.03 846 24.98 -0.9 30.3 57 -8.4 16.8
05:45 1016 30 846 24.98 -1 30.3 58 -8.2 17.2
05:50 1017 30.03 846 24.98 -1.1 30 59 -8.2 17.2
05:55 1017 30.03 846 24.98 -1.3 29.7 58 -8.4 16.8
06:00 1017 30.03 846 24.98 -1.4 29.5 59 -8.5 16.8
06:05 1016 30 846 24.98 -1.3 29.7 57 -8.7 16.3
06:10 1016 30 846 24.98 -1.2 29.9 58 -8.4 16.8
06:15 1016 30 846 24.98 -1.2 29.8 58 -8.5 16.7
06:20 1016 30 846 24.98 -1.1 30.1 57 -8.4 16.8
06:25 1017 30.03 846 24.98 -1 30.2 57 -8.5 16.7
06:30 1017 30.03 846 24.98 -1.1 30 58 -8.3 17
06:35 1017 30.03 846 24.98 -1.3 29.6 59 -8.5 16.8
06:40 1017 30.03 846 24.98 -1.1 30 56 -8.9 15.9
06:45 1017 30.03 846 24.98 -0.6 30.8 53 -9 15.8
06:50 1017 30.03 846 24.98 -0.2 31.6 54 -8.5 16.6
06:55 1017 30.03 846 24.98 -0.3 31.5 53 -8.9 16.1
07:00 1017 30.03 846 24.98 -0.3 31.4 54 -8.6 16.5
07:05 1016 30 846 24.98 -0.5 31.1 56 -8.3 17
07:10 1016 30 846 24.98 -1 30.2 58 -8.3 17.1
07:15 1017 30.03 846 24.98 -1.2 29.9 58 -8.3 17
07:20 1017 30.03 846 24.98 -1 30.3 57 -8.5 16.6
07:25 1017 30.03 846 24.98 -0.7 30.7 56 -8.4 16.9
07:30 1017 30.03 846 24.98 -0.8 30.5 58 -8.2 17.3
07:35 1017 30.03 846 24.98 -1.4 29.5 59 -8.4 17
07:40 1017 30.03 846 24.98 -1.3 29.7 58 -8.6 16.6
07:45 1017 30.03 846 24.98 -0.9 30.4 57 -8.3 17.1
07:50 1017 30.03 846 24.98 -0.8 30.5 57 -8.3 17.1
07:55 1017 30.03 846 24.98 -0.8 30.5 56 -8.5 16.6
08:00 1017 30.03 846 24.98 -0.8 30.6 56 -8.4 16.8
08:05 1017 30.03 846 24.98 -0.9 30.4 56 -8.5 16.7
08:10 1017 30.03 846 24.98 -1.2 29.8 59 -8.2 17.2
08:15 1017 30.03 846 24.98 -1.6 29.2 58 -8.7 16.3
08:20 1017 30.03 846 24.98 -1.5 29.4 57 -9 15.8
08:25 1017 30.03 846 24.98 -0.5 31.2 50 -9.6 14.8
08:30 1017 30.03 846 24.98 0.4 32.8 52 -8.4 16.8
08:35 1017 30.03 846 24.98 -0.9 30.4 56 -8.6 16.4
08:40 1017 30.03 846 24.98 -1.2 29.9 55 -9 15.7
08:45 1017 30.03 846 24.98 -1 30.3 56 -8.7 16.4
08:50 1017 30.03 846 24.98 -1.1 30 56 -8.8 16.2
08:55 1017 30.03 846 24.98 -1 30.3 55 -8.9 16
09:00 1017 30.03 846 24.98 -0.7 30.8 53 -9 15.8
09:05 1017 30.03 846 24.98 -0.9 30.5 56 -8.5 16.7
09:10 1017 30.03 846 24.98 -1.6 29.1 57 -9 15.9
09:15 1017 30.03 846 24.98 -1.4 29.4 56 -9.1 15.7
09:20 1017 30.03 846 24.98 -1.1 30 56 -8.7 16.3
09:25 1017 30.03 846 24.98 -1.8 28.8 60 -8.7 16.4
09:30 1017 30.03 846 24.98 -1.9 28.6 57 -9.3 15.3
09:35 1017 30.03 846 24.98 -1.3 29.8 56 -8.8 16.1
09:40 1017 30.03 847 25.01 -0.7 30.7 55 -8.8 16.2
09:45 1017 30.03 846 24.98 -1 30.3 56 -8.7 16.3
09:50 1017 30.03 846 24.98 -1 30.2 56 -8.8 16.2
09:55 1017 30.03 846 24.98 -0.9 30.3 55 -8.8 16.2
10:00 1017 30.03 846 24.98 -0.6 31 52 -9.2 15.4
10:05 1017 30.03 846 24.98 0.1 32.2 50 -9 15.8
10:10 1017 30.03 846 24.98 0.7 33.2 49 -8.9 16
10:15 1017 30.03 847 25.01 0.9 33.6 49 -8.7 16.3
10:20 1017 30.03 847 25.01 0.7 33.3 50 -8.5 16.8
10:25 1017 30.03 847 25.01 1.2 34.2 50 -8.2 17.3
10:30 1017 30.03 847 25.01 1.3 34.4 48 -8.6 16.5
10:35 1017 30.03 847 25.01 1.5 34.7 46 -8.9 15.9
10:40 1017 30.03 847 25.01 2 35.6 44 -8.9 16
10:45 1017 30.03 847 25.01 2.1 35.8 44 -8.9 16
10:50 1017 30.03 846 24.98 1.8 35.3 46 -8.6 16.6
10:55 1017 30.03 846 24.98 2 35.6 45 -8.8 16.2
11:00 1017 30.03 846 24.98 2.2 36 44 -8.8 16.2
11:05 1017 30.03 846 24.98 2.1 35.7 45 -8.5 16.6
11:10 1017 30.03 846 24.98 1.8 35.2 46 -8.6 16.5
11:15 1017 30.03 846 24.98 2 35.6 43 -9.3 15.3
11:20 1017 30.03 846 24.98 2 35.7 43 -9.4 15.1
11:25 1017 30.03 846 24.98 2.1 35.8 45 -8.7 16.4
11:30 1017 30.03 846 24.98 2.1 35.8 43 -9.3 15.3
11:35 1016 30 846 24.98 2 35.5 44 -9 15.8
11:40 1016 30 846 24.98 1.9 35.5 44 -9.1 15.6
11:45 1016 30 846 24.98 2.2 36 44 -8.9 16.1
11:50 1016 30 846 24.98 2.7 36.8 43 -8.7 16.4
11:55 1016 30 846 24.98 2.6 36.7 44 -8.5 16.6
12:00 1016 30 845 24.95 2.5 36.5 43 -8.8 16.1
12:05 1016 30 845 24.95 3.1 37.6 42 -8.5 16.8
12:10 1016 30 845 24.95 3.2 37.8 41 -9 15.8
12:15 1016 30 845 24.95 3.6 38.5 42 -8.3 17.1
12:20 1016 30 845 24.95 3.7 38.7 42 -7.9 17.7
12:25 1016 30 845 24.95 3.9 39 41 -8.3 17
12:30 1016 30 845 24.95 4.3 39.8 40 -8.2 17.2
12:35 1016 30 845 24.95 3.8 38.8 40 -8.7 16.4
12:40 1016 30 845 24.95 3.2 37.8 41 -8.8 16.1
12:45 1016 30 845 24.95 3.8 38.8 38 -9.2 15.5
12:50 1016 30 845 24.95 4.2 39.6 36 -9.6 14.7
12:55 1016 30 845 24.95 4.6 40.3 36 -9.3 15.3
13:00 1016 30 845 24.95 4.7 40.4 38 -8.5 16.6
13:05 1016 30 845 24.95 4.5 40 38 -8.8 16.2
13:10 1015 29.97 845 24.95 4.4 40 38 -8.7 16.4
13:15 1015 29.97 845 24.95 4.1 39.4 40 -8.2 17.3
13:20 1015 29.97 845 24.95 3.5 38.3 47 -6.8 19.8
13:25 1015 29.97 844 24.92 3 37.4 49 -6.6 20.1
13:30 1015 29.97 844 24.92 3.1 37.5 45 -7.6 18.2
13:35 1015 29.97 844 24.92 3.3 37.9 47 -7.1 19.3
13:40 1015 29.97 844 24.92 3.2 37.8 47 -7.1 19.3
13:45 1015 29.97 844 24.92 2.9 37.2 45 -7.8 18
13:50 1015 29.97 844 24.92 3.2 37.7 45 -7.7 18.2
13:55 1015 29.97 844 24.92 3.2 37.7 46 -7.4 18.6
14:00 1015 29.97 844 24.92 3.1 37.5 45 -7.6 18.3
14:05 1015 29.97 844 24.92 3.3 38 43 -8.2 17.3
14:10 1015 29.97 844 24.92 3.8 38.9 42 -7.8 18
14:15 1015 29.97 844 24.92 4.1 39.4 43 -7.5 18.6
14:20 1015 29.97 844 24.92 4.1 39.4 43 -7.2 19
14:25 1015 29.97 844 24.92 4.3 39.7 42 -7.4 18.6
14:30 1015 29.97 844 24.92 4.1 39.4 44 -7.1 19.2
14:35 1015 29.97 844 24.92 3.9 39 42 -7.7 18.1
14:40 1015 29.97 844 24.92 4 39.1 43 -7.6 18.3
14:45 1015 29.97 844 24.92 3.9 39 44 -7.4 18.7
14:50 1015 29.97 844 24.92 3.7 38.7 43 -7.7 18.1
14:55 1015 29.97 844 24.92 3.3 38 45 -7.4 18.6
15:00 1015 29.97 844 24.92 3.2 37.8 43 -8.1 17.4
15:05 1015 29.97 844 24.92 3.4 38.2 42 -8.3 17.1
15:10 1015 29.97 844 24.92 3.5 38.3 44 -7.7 18.1
15:15 1015 29.97 844 24.92 3.2 37.8 47 -7.1 19.2
15:20 1015 29.97 844 24.92 2.8 37 50 -6.6 20.1
15:25 1014 29.94 844 24.92 2.7 36.8 56 -5.4 22.3
15:30 1014 29.94 844 24.92 2.8 37.1 53 -5.9 21.3
15:35 1014 29.94 843 24.89 3 37.4 49 -6.6 20.2
15:40 1014 29.94 843 24.89 3.4 38.1 47 -6.9 19.6
15:45 1014 29.94 843 24.89 3.6 38.6 48 -6.5 20.4
15:50 1014 29.94 843 24.89 3.7 38.6 47 -6.5 20.3
15:55 1014 29.94 843 24.89 3.7 38.7 47 -6.5 20.3
16:00 1014 29.94 843 24.89 3.8 38.9 47 -6.6 20.1
16:05 1014 29.94 843 24.89 3.8 38.9 48 -6.3 20.7
16:10 1014 29.94 843 24.89 3.7 38.7 47 -6.6 20.2
16:15 1014 29.94 843 24.89 3.6 38.5 49 -6.2 20.8
16:20 1014 29.94 843 24.89 3.5 38.3 49 -6.1 20.9
16:25 1014 29.94 843 24.89 3.5 38.3 48 -6.4 20.5
16:30 1014 29.94 843 24.89 3.5 38.3 49 -6.3 20.7
16:35 1014 29.94 843 24.89 3.5 38.3 46 -6.9 19.6
16:40 1014 29.94 843 24.89 3.6 38.5 44 -7.5 18.6
16:45 1014 29.94 843 24.89 3.6 38.5 50 -6 21.2
16:50 1014 29.94 843 24.89 3.2 37.7 49 -6.7 20
16:55 1014 29.94 843 24.89 3.2 37.7 47 -7 19.4
17:00 1014 29.94 843 24.89 3.5 38.3 46 -7 19.3
17:05 1014 29.94 843 24.89 3.6 38.5 48 -6.5 20.3
17:10 1014 29.94 843 24.89 3.4 38 49 -6.3 20.7
17:15 1014 29.94 843 24.89 3.7 38.6 36 -10 14
17:20 1014 29.94 843 24.89 4.5 40.2 49 -5.3 22.4
17:25 1014 29.94 843 24.89 3.4 38.2 51 -5.9 21.4
17:30 1014 29.94 843 24.89 2.9 37.3 53 -5.8 21.5
17:35 1014 29.94 843 24.89 3 37.4 52 -6 21.2
17:40 1014 29.94 843 24.89 2.9 37.2 50 -6.4 20.5
17:45 1014 29.94 843 24.89 2.6 36.8 47 -7.5 18.4
17:50 1014 29.94 843 24.89 2.6 36.7 52 -6.3 20.7
17:55 1014 29.94 843 24.89 2.3 36.1 52 -6.6 20.2
18:00 1014 29.94 843 24.89 2.3 36.1 50 -7.2 19
18:05 1014 29.94 843 24.89 2.7 36.8 45 -8.2 17.3
18:10 1014 29.94 843 24.89 3.5 38.3 47 -6.8 19.7
18:15 1014 29.94 843 24.89 3.3 37.9 47 -7 19.3
18:20 1014 29.94 843 24.89 3.3 38 45 -7.4 18.8
18:25 1013 29.91 843 24.89 3.4 38 47 -7 19.4
18:30 1013 29.91 843 24.89 3 37.5 49 -6.7 19.9
18:35 1013 29.91 843 24.89 2.9 37.2 49 -6.8 19.8
18:40 1013 29.91 842 24.86 2.9 37.1 49 -6.7 20
18:45 1013 29.91 842 24.86 2.8 37 48 -7.3 18.9
18:50 1013 29.91 842 24.86 2.8 37 50 -6.6 20.2
18:55 1013 29.91 842 24.86 2.5 36.5 51 -6.6 20.1
19:00 1013 29.91 842 24.86 2.3 36.2 52 -6.6 20
19:05 1013 29.91 842 24.86 2.5 36.5 48 -7.5 18.5
19:10 1013 29.91 842 24.86 2.6 36.8 50 -6.9 19.6
19:15 1013 29.91 842 24.86 2.8 37 48 -7.2 19
19:20 1013 29.91 842 24.86 2.9 37.2 44 -8.1 17.4
19:25 1013 29.91 842 24.86 3.7 38.6 41 -8.5 16.8
19:30 1013 29.91 842 24.86 3.8 38.8 39 -8.8 16.1
19:35 1013 29.91 842 24.86 4 39.2 36 -9.7 14.6
19:40 1013 29.91 842 24.86 4.2 39.5 39 -8.5 16.7
19:45 1013 29.91 842 24.86 3.9 39 40 -8.6 16.6
19:50 1013 29.91 842 24.86 3.9 39 36 -9.7 14.5
19:55 1013 29.91 842 24.86 4.1 39.4 37 -9.3 15.3
20:00 1013 29.91 842 24.86 4 39.3 38 -8.9 16
20:05 1012 29.88 842 24.86 3.6 38.6 36 -10.2 13.6
20:10 1012 29.88 842 24.86 3.9 39 37 -9.4 15
20:15 1012 29.88 842 24.86 4.2 39.6 34 -10.3 13.4
20:20 1012 29.88 841 24.83 4.1 39.3 37 -9.2 15.4
20:25 1012 29.88 842 24.86 3.9 38.9 39 -8.9 16
20:30 1012 29.88 841 24.83 3.3 37.9 36 -10.4 13.3
20:35 1012 29.88 841 24.83 3.3 38 39 -9.4 15.2
20:40 1012 29.88 841 24.83 2.8 37 44 -8.2 17.2
20:45 1012 29.88 841 24.83 2.6 36.7 43 -8.7 16.3
20:50 1012 29.88 841 24.83 3 37.4 39 -9.8 14.4
20:55 1012 29.88 841 24.83 3.4 38.1 41 -8.8 16.2
21:00 1012 29.88 841 24.83 3 37.4 42 -8.8 16.2
21:05 1012 29.88 841 24.83 3 37.4 41 -9.1 15.6
21:10 1012 29.88 841 24.83 3.1 37.5 41 -9.1 15.7
21:15 1012 29.88 841 24.83 3.1 37.6 39 -9.5 15
21:20 1012 29.88 841 24.83 3.3 37.9 40 -9 15.8
21:25 1012 29.88 841 24.83 3.2 37.7 40 -9.2 15.5
21:30 1012 29.88 841 24.83 3.6 38.5 37 -9.9 14.1
21:35 1012 29.88 841 24.83 3.9 39 36 -9.8 14.4
21:40 1012 29.88 841 24.83 3.5 38.4 40 -8.9 16
21:45 1012 29.88 841 24.83 3.2 37.8 37 -10.1 13.9
21:50 1012 29.88 841 24.83 3.9 39 36 -9.9 14.2
21:55 1012 29.88 841 24.83 4.1 39.4 33 -10.6 12.9
22:00 1012 29.88 841 24.83 4.5 40.1 34 -10.2 13.7
22:05 1012 29.88 841 24.83 4.2 39.5 35 -9.9 14.3
22:10 1012 29.88 841 24.83 3.8 38.8 37 -9.7 14.5
22:15 1012 29.88 841 24.83 3.7 38.6 35 -10.5 13
22:20 1012 29.88 841 24.83 3.8 38.9 35 -10.1 13.8
22:25 1012 29.88 841 24.83 3.7 38.7 35 -10.3 13.5
22:30 1011 29.85 841 24.83 3.8 38.9 34 -10.5 13.1
22:35 1011 29.85 841 24.83 3.9 39 35 -10.3 13.5
22:40 1011 29.85 841 24.83 4 39.2 34 -10.7 12.8
22:45 1011 29.85 841 24.83 4.1 39.4 33 -10.8 12.6
22:50 1011 29.85 841 24.83 4.2 39.6 33 -10.7 12.7
22:55 1011 29.85 841 24.83 4.5 40.1 33 -10.5 13.1
23:00 1011 29.85 841 24.83 4.7 40.5 32 -10.7 12.7
23:05 1011 29.85 841 24.83 4.7 40.5 32 -10.8 12.5
23:10 1011 29.85 840 24.81 4.6 40.3 32 -10.6 12.9
23:15 1011 29.85 840 24.81 4.3 39.8 33 -10.6 12.9
23:20 1011 29.85 840 24.81 4.4 39.9 32 -10.8 12.5
23:25 1011 29.85 840 24.81 4.5 40.1 32 -10.9 12.4
23:30 1011 29.85 840 24.81 4.5 40.1 32 -10.9 12.4
23:35 1011 29.85 840 24.81 4.4 40 32 -10.7 12.8
23:40 1011 29.85 840 24.81 4.4 40 31 -11.1 12
23:45 1011 29.85 840 24.81 4.4 39.8 33 -10.7 12.7
23:50 1011 29.85 840 24.81 4.4 39.8 32 -11 12.2
23:55 1011 29.85 840 24.81 4.4 40 33 -10.7 12.8
24:00 1011 29.85 840 24.81 4.6 40.2 32 -10.9 12.3